Time;durP1;ratioP1;P1;durP2;ratioP2;P2;SDS_P1;SDS_P2;PMS_P1;PMS_P2;Temp;Humidity;BMP_temperature;BMP_pressure;BME280_temperature;BME280_humidity;BME280_pressure;Samples;Min_cycle;Max_cycle;Signal;HPM_P1;HPM_P2
2023/03/04 00:01:15;;;;;;;39.00;25.30;;;;;;;4.52;59.69;96607.66;5026289;28;20266;-69
2023/03/04 00:03:41;;;;;;;37.10;25.47;;;;;;;4.45;59.76;96607.75;5026232;28;20176;-70
2023/03/04 00:06:07;;;;;;;41.23;27.10;;;;;;;4.42;59.72;96606.94;5026015;28;20175;-70
2023/03/04 00:08:32;;;;;;;41.07;27.13;;;;;;;4.36;60.12;96601.84;5026253;28;20405;-71
2023/03/04 00:10:57;;;;;;;44.57;26.90;;;;;;;4.39;59.84;96597.47;5026012;28;20434;-69
2023/03/04 00:13:24;;;;;;;39.20;26.80;;;;;;;4.40;59.80;96606.13;5026031;28;20188;-69
2023/03/04 00:15:49;;;;;;;43.37;27.97;;;;;;;4.33;59.81;96612.28;5025904;28;20546;-69
2023/03/04 00:18:15;;;;;;;47.53;30.77;;;;;;;4.33;59.64;96614.91;5025890;28;20418;-70
2023/03/04 00:20:40;;;;;;;38.93;27.17;;;;;;;4.33;60.02;96601.91;5026074;28;20659;-70
2023/03/04 00:23:06;;;;;;;37.10;25.90;;;;;;;4.25;60.03;96609.78;5026075;28;20241;-69
2023/03/04 00:25:32;;;;;;;40.67;27.90;;;;;;;4.11;60.14;96599.66;5025896;28;20164;-69
2023/03/04 00:27:58;;;;;;;37.53;24.07;;;;;;;4.12;60.47;96611.72;5025900;28;20195;-69
2023/03/04 00:30:23;;;;;;;37.00;25.67;;;;;;;4.15;60.02;96605.63;5026145;28;20453;-71
2023/03/04 00:32:49;;;;;;;44.20;28.43;;;;;;;4.13;60.06;96608.25;5026057;28;20278;-70
2023/03/04 00:35:15;;;;;;;36.90;26.27;;;;;;;3.96;60.54;96611.09;5026201;28;20179;-70
2023/03/04 00:37:41;;;;;;;42.97;27.30;;;;;;;4.13;60.05;96604.78;5025674;28;20206;-69
2023/03/04 00:40:08;;;;;;;35.20;25.57;;;;;;;3.98;60.32;96611.94;5026112;28;20176;-69
2023/03/04 00:42:33;;;;;;;39.83;23.90;;;;;;;3.97;60.49;96599.84;5025600;28;20254;-67
2023/03/04 00:44:58;;;;;;;43.43;26.10;;;;;;;3.95;60.14;96609.41;5025893;28;20420;-69
2023/03/04 00:47:24;;;;;;;35.93;25.97;;;;;;;3.97;60.17;96599.00;5025497;28;20918;-69
2023/03/04 00:49:49;;;;;;;37.80;26.63;;;;;;;3.96;60.42;96600.72;5025801;28;20200;-71
2023/03/04 00:52:15;;;;;;;39.83;27.53;;;;;;;4.00;59.99;96601.53;5025692;28;20234;-70
2023/03/04 00:54:40;;;;;;;40.30;26.33;;;;;;;3.96;60.01;96595.50;5025729;28;20269;-69
2023/03/04 00:57:06;;;;;;;45.83;27.00;;;;;;;3.91;60.46;96602.53;5027375;28;20171;-69
2023/03/04 00:59:31;;;;;;;43.60;26.87;;;;;;;3.77;60.76;96597.53;5029704;28;20607;-70
2023/03/04 01:01:56;;;;;;;57.50;31.77;;;;;;;3.79;60.81;96592.31;5029613;28;20202;-70
2023/03/04 01:04:22;;;;;;;43.53;31.70;;;;;;;3.72;61.33;96594.13;5029421;28;20584;-71
2023/03/04 01:06:48;;;;;;;46.77;27.73;;;;;;;3.69;61.58;96590.75;5029569;28;20229;-70
2023/03/04 01:09:13;;;;;;;43.77;28.27;;;;;;;3.66;61.47;96596.84;5029413;28;20258;-70
2023/03/04 01:11:38;;;;;;;44.30;28.50;;;;;;;3.59;62.03;96592.56;5029276;28;20519;-70
2023/03/04 01:14:04;;;;;;;55.57;30.43;;;;;;;3.49;62.42;96594.44;5027953;28;20171;-68
2023/03/04 01:16:29;;;;;;;44.13;29.90;;;;;;;3.53;62.49;96588.34;5027567;28;20179;-70
2023/03/04 01:18:55;;;;;;;48.40;29.40;;;;;;;3.38;62.56;96597.19;5029227;28;20202;-68
2023/03/04 01:21:20;;;;;;;49.37;30.23;;;;;;;3.42;62.89;96592.81;5028901;28;20179;-68
2023/03/04 01:23:46;;;;;;;46.57;32.30;;;;;;;3.41;63.35;96593.69;5028995;28;20224;-69
2023/03/04 01:26:11;;;;;;;46.87;32.47;;;;;;;3.38;63.58;96596.34;5028589;28;20180;-70
2023/03/04 01:28:37;;;;;;;52.20;31.67;;;;;;;3.38;63.93;96585.97;5028962;28;20205;-68
2023/03/04 01:31:02;;;;;;;45.87;33.30;;;;;;;3.32;63.66;96586.03;5028880;28;20183;-68
2023/03/04 01:33:29;;;;;;;48.00;31.83;;;;;;;3.37;64.08;96576.44;5028906;28;20262;-69
2023/03/04 01:35:54;;;;;;;46.50;31.67;;;;;;;3.37;63.90;96579.03;5028902;28;20167;-68
2023/03/04 01:38:19;;;;;;;49.17;32.23;;;;;;;3.36;63.86;96567.81;5028947;28;20421;-69
2023/03/04 01:40:45;;;;;;;48.63;32.50;;;;;;;3.44;63.33;96572.88;5028939;28;20317;-68
2023/03/04 01:43:19;;;;;;;49.10;31.17;;;;;;;3.28;64.10;96567.03;5028788;28;20575;-68
2023/03/04 01:45:45;;;;;;;52.50;31.27;;;;;;;3.26;64.05;96562.75;5030699;28;20653;-68
2023/03/04 01:48:15;;;;;;;46.17;32.07;;;;;;;3.31;63.71;96568.75;5028694;28;20501;-69
2023/03/04 01:50:41;;;;;;;51.90;34.10;;;;;;;3.46;63.33;96563.34;5027491;28;20418;-69
2023/03/04 01:53:16;;;;;;;44.50;31.40;;;;;;;3.31;63.90;96573.94;5028962;28;20445;-70
2023/03/04 01:55:42;;;;;;;48.20;31.37;;;;;;;3.31;63.38;96559.22;5028265;28;20643;-71
2023/03/04 01:58:10;;;;;;;47.37;31.27;;;;;;;3.29;63.50;96558.38;5028519;28;20423;-68
2023/03/04 02:00:36;;;;;;;43.67;31.03;;;;;;;3.26;63.61;96558.44;5028422;28;20631;-69
2023/03/04 02:03:07;;;;;;;46.73;29.73;;;;;;;3.15;63.70;96558.56;5029271;28;20525;-71
2023/03/04 02:05:36;;;;;;;51.93;30.83;;;;;;;3.13;63.79;96556.84;5029160;28;20233;-70
2023/03/04 02:08:03;;;;;;;42.80;28.97;;;;;;;3.13;63.88;96555.13;5029740;28;20422;-69
2023/03/04 02:10:29;;;;;;;46.00;33.17;;;;;;;3.21;63.69;96548.97;5029771;28;20414;-72
2023/03/04 02:12:55;;;;;;;47.90;30.80;;;;;;;3.11;63.95;96551.69;5028315;28;20462;-68
2023/03/04 02:15:22;;;;;;;50.53;30.40;;;;;;;3.12;63.72;96548.22;5028102;28;20291;-70
2023/03/04 02:17:48;;;;;;;49.60;31.53;;;;;;;3.21;63.74;96547.25;5027944;28;20956;-69
2023/03/04 02:20:23;;;;;;;46.27;32.17;;;;;;;3.04;63.73;96557.81;5026681;28;20458;-68
2023/03/04 02:23:24;;;;;;;49.67;30.00;;;;;;;3.12;63.73;96562.94;5027969;28;20986;-68
2023/03/04 02:26:12;;;;;;;51.87;30.90;;;;;;;3.12;63.69;96561.19;5024738;28;20865;-68
2023/03/04 02:28:38;;;;;;;47.37;30.43;;;;;;;3.11;63.80;96543.91;5027836;28;20583;-69
2023/03/04 02:31:04;;;;;;;44.03;30.07;;;;;;;3.07;63.56;96554.31;5028082;28;20435;-70
2023/03/04 02:33:29;;;;;;;39.50;28.93;;;;;;;3.04;63.87;96560.41;5027600;28;20249;-70
2023/03/04 02:35:55;;;;;;;49.20;29.57;;;;;;;3.01;63.93;96547.50;5027539;28;20539;-68
2023/03/04 02:38:20;;;;;;;46.63;28.23;;;;;;;2.98;63.76;96555.31;5027676;28;20680;-70
2023/03/04 02:40:50;;;;;;;44.10;31.00;;;;;;;2.94;64.12;96553.63;5027481;28;20182;-69
2023/03/04 02:43:16;;;;;;;47.53;29.77;;;;;;;2.90;64.20;96557.13;5027311;28;20867;-69
2023/03/04 02:45:48;;;;;;;50.87;31.97;;;;;;;2.85;64.31;96553.72;5027120;28;20488;-68
2023/03/04 02:48:18;;;;;;;46.67;30.57;;;;;;;2.86;64.68;96555.44;5027327;28;20708;-69
2023/03/04 02:50:51;;;;;;;48.63;31.30;;;;;;;2.87;64.56;96554.56;5027565;28;20847;-68
2023/03/04 02:53:17;;;;;;;48.13;31.30;;;;;;;2.82;64.69;96564.13;5027428;28;20437;-68
2023/03/04 02:55:42;;;;;;;45.90;30.10;;;;;;;2.83;64.80;96558.91;5027140;28;21164;-69
2023/03/04 02:58:09;;;;;;;51.43;30.87;;;;;;;2.86;64.73;96553.72;5027046;28;20438;-70
2023/03/04 03:00:34;;;;;;;52.60;32.50;;;;;;;2.85;64.61;96552.00;5027223;28;20570;-68
2023/03/04 03:03:00;;;;;;;47.37;30.07;;;;;;;2.78;65.23;96549.50;5027027;28;20523;-70
2023/03/04 03:05:29;;;;;;;43.53;29.93;;;;;;;2.72;64.93;96551.28;5027506;28;20901;-69
2023/03/04 03:07:55;;;;;;;49.63;32.80;;;;;;;2.80;64.50;96545.16;5026894;28;20175;-69
2023/03/04 03:10:21;;;;;;;49.77;31.80;;;;;;;2.84;64.65;96546.84;5026910;28;20410;-69
2023/03/04 03:12:46;;;;;;;50.30;30.40;;;;;;;2.84;64.56;96541.66;5026951;28;20192;-71
2023/03/04 03:15:12;;;;;;;49.30;31.00;;;;;;;2.79;64.16;96548.59;5027117;28;20182;-67
2023/03/04 03:17:38;;;;;;;47.37;28.47;;;;;;;2.70;64.56;96544.41;5026572;28;20172;-69
2023/03/04 03:20:04;;;;;;;60.63;30.20;;;;;;;2.68;64.76;96549.59;5026138;28;20168;-68
2023/03/04 03:22:29;;;;;;;49.93;31.20;;;;;;;2.70;64.47;96547.84;5026712;28;20537;-68
2023/03/04 03:24:55;;;;;;;44.47;29.03;;;;;;;2.72;64.37;96546.09;5026697;28;20448;-69
2023/03/04 03:27:20;;;;;;;44.03;29.50;;;;;;;2.78;64.25;96547.75;5026506;28;20205;-71
2023/03/04 03:29:46;;;;;;;46.40;32.50;;;;;;;2.75;63.57;96548.66;5026900;28;20179;-70
2023/03/04 03:32:11;;;;;;;45.43;27.53;;;;;;;2.77;63.97;96540.88;5025240;28;20191;-69
2023/03/04 03:34:37;;;;;;;46.60;31.23;;;;;;;2.70;64.01;96558.19;5026871;28;20218;-70
2023/03/04 03:37:02;;;;;;;45.83;29.37;;;;;;;2.69;64.38;96546.13;5026483;28;20172;-69
2023/03/04 03:39:27;;;;;;;46.50;30.40;;;;;;;2.64;64.13;96542.72;5026545;28;20175;-70
2023/03/04 03:41:53;;;;;;;44.77;30.73;;;;;;;2.57;64.08;96545.38;5026543;28;20292;-70
2023/03/04 03:44:18;;;;;;;40.93;29.37;;;;;;;2.70;63.97;96541.81;5026659;28;20179;-69
2023/03/04 03:46:44;;;;;;;40.27;28.10;;;;;;;2.70;63.48;96550.44;5026123;28;20198;-70
2023/03/04 03:49:09;;;;;;;49.87;29.60;;;;;;;2.71;63.40;96552.13;5026584;28;20175;-69
2023/03/04 03:51:35;;;;;;;40.27;29.13;;;;;;;2.73;62.92;96541.75;5026316;28;20203;-68
2023/03/04 03:54:00;;;;;;;48.80;28.10;;;;;;;2.50;63.66;96552.34;5026558;28;20650;-70
2023/03/04 03:56:25;;;;;;;45.40;29.33;;;;;;;2.35;64.59;96547.34;5026341;28;20171;-69
2023/03/04 03:58:51;;;;;;;42.93;29.03;;;;;;;2.18;64.96;96538.00;5026384;28;20183;-70
2023/03/04 04:01:16;;;;;;;46.83;30.27;;;;;;;2.40;64.52;96543.81;5026244;28;20206;-69
2023/03/04 04:03:42;;;;;;;41.43;27.33;;;;;;;2.36;64.48;96552.47;5026354;28;20233;-69
2023/03/04 04:06:07;;;;;;;48.13;29.07;;;;;;;2.37;63.93;96549.03;5026123;28;20736;-70
2023/03/04 04:08:33;;;;;;;151.67;38.00;;;;;;;2.35;64.48;96552.53;5025926;28;20176;-69
2023/03/04 04:10:58;;;;;;;51.70;28.57;;;;;;;2.45;64.09;96543.78;5026349;28;20173;-70
2023/03/04 04:13:24;;;;;;;41.23;28.53;;;;;;;2.46;64.07;96551.53;5026217;28;20542;-69
2023/03/04 04:15:53;;;;;;;43.77;29.37;;;;;;;2.49;64.08;96550.66;5026017;28;20168;-68
2023/03/04 04:18:18;;;;;;;47.57;29.30;;;;;;;2.42;63.79;96551.59;5026091;28;20176;-70
2023/03/04 04:20:43;;;;;;;45.30;29.20;;;;;;;2.35;63.91;96547.34;5026220;28;20444;-68
2023/03/04 04:23:10;;;;;;;44.83;29.77;;;;;;;2.39;63.94;96551.63;5025973;28;20626;-69
2023/03/04 04:25:35;;;;;;;49.90;31.63;;;;;;;2.40;63.69;96551.59;5026237;28;20597;-68
2023/03/04 04:28:01;;;;;;;46.80;27.83;;;;;;;2.44;63.69;96549.84;5026124;28;20422;-70
2023/03/04 04:30:26;;;;;;;53.20;31.13;;;;;;;2.40;63.79;96550.75;5026868;28;20167;-69
2023/03/04 04:32:52;;;;;;;44.93;27.83;;;;;;;2.41;63.82;96553.31;5030225;28;20192;-69
2023/03/04 04:35:17;;;;;;;42.63;28.13;;;;;;;2.34;63.81;96556.84;5030335;28;20197;-69
2023/03/04 04:37:43;;;;;;;49.23;27.50;;;;;;;2.32;63.39;96549.06;5029825;28;20171;-69
2023/03/04 04:40:09;;;;;;;40.23;29.20;;;;;;;2.32;64.16;96554.25;5029856;28;20645;-68
2023/03/04 04:42:34;;;;;;;43.23;29.60;;;;;;;2.35;63.87;96552.53;5029607;28;20255;-67
2023/03/04 04:45:00;;;;;;;51.53;28.40;;;;;;;2.28;64.04;96547.38;5029646;28;20422;-68
2023/03/04 04:47:25;;;;;;;44.97;28.67;;;;;;;2.21;63.96;96545.72;5029377;28;20257;-69
2023/03/04 04:49:51;;;;;;;46.90;28.70;;;;;;;2.16;64.21;96546.66;5029578;28;20175;-69
2023/03/04 04:52:16;;;;;;;49.73;28.03;;;;;;;2.07;64.59;96547.56;5029504;28;20200;-70
2023/03/04 04:54:42;;;;;;;46.40;28.73;;;;;;;1.98;64.44;96547.63;5029483;28;20202;-68
2023/03/04 04:57:07;;;;;;;48.30;30.83;;;;;;;2.09;64.64;96546.69;5029157;28;20266;-68
2023/03/04 04:59:32;;;;;;;43.53;27.97;;;;;;;2.13;64.60;96544.94;5029399;28;20261;-68
2023/03/04 05:01:58;;;;;;;47.50;29.77;;;;;;;2.07;63.93;96543.25;5029303;28;20240;-71
2023/03/04 05:04:23;;;;;;;40.57;27.60;;;;;;;2.16;64.58;96551.81;5029326;28;20182;-68
2023/03/04 05:06:49;;;;;;;48.60;28.63;;;;;;;1.99;64.92;96545.06;5028998;28;20174;-70
2023/03/04 05:09:14;;;;;;;47.60;28.60;;;;;;;2.03;64.77;96538.09;5029429;28;20178;-68
2023/03/04 05:11:40;;;;;;;56.73;30.77;;;;;;;2.09;64.68;96544.09;5029213;28;20274;-69
2023/03/04 05:14:05;;;;;;;71.13;35.60;;;;;;;1.97;65.25;96546.78;5029218;28;20649;-70
2023/03/04 05:16:31;;;;;;;44.67;28.80;;;;;;;1.97;65.12;96545.94;5026942;28;20192;-70
2023/03/04 05:18:57;;;;;;;46.83;28.50;;;;;;;1.94;64.50;96548.53;5028898;28;20167;-68
2023/03/04 05:21:22;;;;;;;47.07;28.97;;;;;;;1.84;65.62;96550.31;5027935;28;20441;-69
2023/03/04 05:23:48;;;;;;;50.57;29.27;;;;;;;1.88;65.10;96544.25;5028700;28;20206;-70
2023/03/04 05:26:16;;;;;;;48.33;29.50;;;;;;;2.00;65.00;96549.34;5031791;28;20210;-71
2023/03/04 05:28:41;;;;;;;42.90;26.93;;;;;;;1.96;64.88;96549.38;5019440;28;20658;-70
2023/03/04 05:31:07;;;;;;;45.70;28.80;;;;;;;1.95;64.91;96547.66;5037316;28;20528;-68
2023/03/04 05:33:33;;;;;;;47.93;29.90;;;;;;;1.85;65.16;96544.31;5029231;28;20348;-69
2023/03/04 05:35:59;;;;;;;49.87;27.80;;;;;;;1.84;65.19;96548.63;5035622;28;20263;-69
2023/03/04 05:38:24;;;;;;;65.83;30.77;;;;;;;1.90;64.77;96545.13;5027515;28;20549;-68
2023/03/04 05:40:56;;;;;;;60.80;29.83;;;;;;;1.89;64.75;96551.16;5026778;28;20222;-70
2023/03/04 05:43:22;;;;;;;42.77;26.90;;;;;;;1.95;64.53;96556.28;5022024;28;20298;-69
2023/03/04 05:45:48;;;;;;;48.30;30.40;;;;;;;1.83;65.17;96554.66;5027333;28;20468;-71
2023/03/04 05:48:13;;;;;;;74.20;29.70;;;;;;;1.88;65.18;96563.22;5025909;28;20672;-69
2023/03/04 05:50:39;;;;;;;48.70;28.83;;;;;;;1.83;65.05;96562.41;5026052;28;20510;-69
2023/03/04 05:53:04;;;;;;;47.80;28.40;;;;;;;1.82;64.88;96559.81;5025982;28;20198;-69
2023/03/04 05:55:30;;;;;;;41.97;28.33;;;;;;;1.79;65.30;96554.69;5025449;28;20182;-72
2023/03/04 05:57:56;;;;;;;54.30;27.90;;;;;;;1.82;64.98;96552.94;5025630;28;20241;-67
2023/03/04 06:00:22;;;;;;;68.53;29.87;;;;;;;1.87;65.21;96555.50;5026005;28;20175;-69
2023/03/04 06:02:47;;;;;;;41.53;29.67;;;;;;;1.85;64.90;96554.66;5025654;28;20222;-69
2023/03/04 06:05:13;;;;;;;46.00;29.73;;;;;;;1.82;65.14;96558.13;5025955;28;20179;-70
2023/03/04 06:07:39;;;;;;;43.47;27.67;;;;;;;1.85;64.51;96560.69;5025525;28;20254;-71
2023/03/04 06:10:05;;;;;;;50.87;28.47;;;;;;;1.95;63.98;96564.06;5025448;28;20414;-69
2023/03/04 06:12:31;;;;;;;45.27;26.77;;;;;;;1.96;64.22;96554.56;5025721;28;20298;-72
2023/03/04 06:14:56;;;;;;;46.70;29.90;;;;;;;1.93;64.36;96559.75;5026186;28;20505;-69
2023/03/04 06:17:22;;;;;;;47.53;28.03;;;;;;;2.21;63.56;96563.84;5026049;28;20230;-70
2023/03/04 06:19:47;;;;;;;44.93;30.70;;;;;;;2.27;63.32;96561.22;5025788;28;20182;-70
2023/03/04 06:22:13;;;;;;;50.80;31.73;;;;;;;2.48;62.60;96574.81;5025547;28;20235;-71
2023/03/04 06:24:38;;;;;;;48.83;30.70;;;;;;;2.68;61.74;96582.41;5025414;28;20179;-68
2023/03/04 06:27:04;;;;;;;44.60;28.87;;;;;;;3.02;60.60;96569.94;5024908;28;20229;-70
2023/03/04 06:29:29;;;;;;;37.50;26.23;;;;;;;3.36;59.49;96566.97;5025446;28;20956;-69
2023/03/04 06:31:55;;;;;;;53.80;28.53;;;;;;;3.69;58.25;96576.03;5025099;28;20238;-70
2023/03/04 06:34:20;;;;;;;50.83;29.40;;;;;;;3.79;57.53;96581.94;5025070;28;20812;-68
2023/03/04 06:36:46;;;;;;;50.57;28.10;;;;;;;4.12;57.07;96572.78;5024953;28;20858;-71
2023/03/04 06:39:12;;;;;;;47.47;26.00;;;;;;;4.57;54.95;96580.69;5024518;28;20172;-72
2023/03/04 06:41:38;;;;;;;41.10;27.43;;;;;;;4.85;53.93;96582.81;5024613;28;20445;-70
2023/03/04 06:44:03;;;;;;;47.00;30.20;;;;;;;5.29;52.68;96581.06;5024447;28;20193;-71
2023/03/04 06:46:29;;;;;;;43.43;27.50;;;;;;;5.33;52.36;96574.06;5024362;28;20180;-69
2023/03/04 06:48:55;;;;;;;42.93;27.97;;;;;;;5.49;51.53;96570.28;5024906;28;20178;-68
2023/03/04 06:51:21;;;;;;;42.67;27.40;;;;;;;5.18;52.07;96585.66;5022787;28;20210;-71
2023/03/04 06:53:46;;;;;;;40.70;27.20;;;;;;;5.49;52.50;96588.50;5024491;28;20445;-71
2023/03/04 06:56:15;;;;;;;53.57;33.53;;;;;;;5.72;51.14;96591.47;5024206;28;20267;-69
2023/03/04 06:58:41;;;;;;;41.50;29.23;;;;;;;6.09;50.41;96592.41;5024668;28;20254;-70
2023/03/04 07:01:17;;;;;;;41.80;28.37;;;;;;;6.67;48.45;96590.16;5024201;28;20877;-70
2023/03/04 07:03:42;;;;;;;41.33;29.00;;;;;;;7.31;46.90;96595.41;5024306;28;20449;-71
2023/03/04 07:06:12;;;;;;;66.63;33.10;;;;;;;7.96;44.89;96586.53;5024234;28;20505;-69
2023/03/04 07:08:38;;;;;;;131.17;39.40;;;;;;;8.17;44.64;96588.50;5023187;28;20187;-68
2023/03/04 07:11:04;;;;;;;41.17;29.00;;;;;;;8.10;44.23;96586.13;5019372;28;21004;-69
2023/03/04 07:13:29;;;;;;;42.27;29.17;;;;;;;8.46;43.20;96582.38;5022866;28;20501;-68
2023/03/04 07:15:55;;;;;;;41.63;31.23;;;;;;;9.03;42.28;96596.16;5023502;28;20183;-69
2023/03/04 07:18:20;;;;;;;44.13;30.47;;;;;;;9.49;41.32;96585.81;5025060;28;20182;-70
2023/03/04 07:20:46;;;;;;;54.37;33.23;;;;;;;10.18;39.85;96589.31;5024230;28;20226;-70
2023/03/04 07:23:11;;;;;;;41.73;29.50;;;;;;;10.83;37.97;96585.88;5025000;28;20282;-70
2023/03/04 07:25:37;;;;;;;42.90;32.60;;;;;;;11.89;35.81;96587.34;5022276;28;20195;-71
2023/03/04 07:28:02;;;;;;;35.73;30.43;;;;;;;12.02;35.90;96582.38;5024340;28;20179;-68
2023/03/04 07:30:27;;;;;;;41.17;31.47;;;;;;;10.89;37.05;96588.22;5019261;28;20180;-69
2023/03/04 07:32:56;;;;;;;48.63;33.30;;;;;;;10.80;38.39;96587.69;5007256;28;20200;-70
2023/03/04 07:35:22;;;;;;;66.80;36.60;;;;;;;11.28;37.35;96583.03;5021964;28;20237;-68
2023/03/04 07:37:47;;;;;;;40.50;31.40;;;;;;;11.05;37.50;96586.66;5027044;28;20423;-69
2023/03/04 07:40:13;;;;;;;48.93;32.93;;;;;;;11.67;36.83;96590.09;5026687;28;20175;-69
2023/03/04 07:42:38;;;;;;;45.00;31.87;;;;;;;11.71;35.55;96585.53;5027055;28;20211;-69
2023/03/04 07:45:05;;;;;;;40.40;31.63;;;;;;;11.63;36.76;96585.88;5025672;28;20176;-68
2023/03/04 07:47:30;;;;;;;37.77;28.63;;;;;;;13.06;34.83;96589.59;5026584;28;20258;-69
2023/03/04 07:49:56;;;;;;;43.47;29.27;;;;;;;14.84;35.00;96576.53;5026728;28;20540;-75
2023/03/04 07:52:21;;;;;;;42.17;32.27;;;;;;;14.51;32.22;96583.59;5026561;28;20253;-74
2023/03/04 07:54:47;;;;;;;42.37;31.70;;;;;;;14.56;31.68;96580.75;5032387;28;20183;-72
2023/03/04 07:57:12;;;;;;;44.70;31.83;;;;;;;14.29;32.20;96583.97;5026334;28;20184;-73
2023/03/04 07:59:38;;;;;;;39.70;31.60;;;;;;;13.72;32.69;96586.19;5025565;28;20191;-74
2023/03/04 08:02:03;;;;;;;38.10;30.90;;;;;;;13.66;33.07;96591.81;5026113;28;20561;-69
2023/03/04 08:04:28;;;;;;;39.20;30.50;;;;;;;14.57;34.75;96585.06;5026445;28;20712;-70
2023/03/04 08:06:54;;;;;;;52.00;31.20;;;;;;;14.78;34.57;96569.78;5031925;28;20171;-70
2023/03/04 08:09:19;;;;;;;45.10;31.80;;;;;;;12.86;34.08;96574.81;5026195;28;20486;-70
2023/03/04 08:11:45;;;;;;;38.73;30.63;;;;;;;12.92;34.39;96585.03;5027222;28;20265;-69
2023/03/04 08:14:12;;;;;;;47.97;33.70;;;;;;;12.37;35.04;96580.69;5024946;28;20190;-69
2023/03/04 08:16:38;;;;;;;45.80;32.33;;;;;;;12.35;36.27;96573.81;5024111;28;20270;-70
2023/03/04 08:19:04;;;;;;;40.00;32.30;;;;;;;12.61;35.79;96580.44;5025934;28;20418;-70
2023/03/04 08:21:30;;;;;;;46.00;32.83;;;;;;;12.38;35.71;96589.44;5026197;28;20418;-70
2023/03/04 08:23:58;;;;;;;42.30;33.13;;;;;;;11.83;36.51;96585.84;5026167;28;20414;-70
2023/03/04 08:26:30;;;;;;;40.17;30.33;;;;;;;11.30;37.83;96586.44;5026020;28;20430;-70
2023/03/04 08:28:56;;;;;;;39.00;29.47;;;;;;;11.30;38.38;96582.97;5026141;28;20414;-70
2023/03/04 08:31:23;;;;;;;43.50;29.80;;;;;;;9.99;41.02;96592.69;5026144;28;20834;-68
2023/03/04 08:33:50;;;;;;;40.43;31.93;;;;;;;10.18;41.08;96598.91;5026428;28;20415;-72
2023/03/04 08:36:15;;;;;;;35.63;30.10;;;;;;;10.74;39.47;96601.06;5025731;28;20520;-71
2023/03/04 08:38:40;;;;;;;40.90;31.00;;;;;;;10.47;40.27;96595.19;5026296;28;20881;-71
2023/03/04 08:41:06;;;;;;;39.30;31.03;;;;;;;10.20;40.28;96601.50;5025900;28;20393;-70
2023/03/04 08:43:32;;;;;;;42.37;30.87;;;;;;;10.16;41.08;96606.00;5026025;28;20231;-70
2023/03/04 08:45:58;;;;;;;39.23;30.47;;;;;;;10.15;40.55;96607.75;5026512;28;20201;-69
2023/03/04 08:48:24;;;;;;;39.77;30.30;;;;;;;9.80;41.67;96606.47;5025994;28;20187;-70
2023/03/04 08:50:50;;;;;;;40.40;30.13;;;;;;;9.29;42.66;96618.81;5025953;28;20899;-70
2023/03/04 08:53:17;;;;;;;50.97;30.83;;;;;;;9.20;43.81;96618.28;5025622;28;20254;-70
2023/03/04 08:55:43;;;;;;;40.73;28.13;;;;;;;9.28;43.57;96618.84;5021401;28;20434;-68
2023/03/04 08:58:10;;;;;;;41.87;29.50;;;;;;;9.46;43.53;96622.59;5025023;28;20414;-67
2023/03/04 09:00:39;;;;;;;46.87;32.00;;;;;;;9.82;42.70;96616.91;5025204;28;20521;-68
2023/03/04 09:03:05;;;;;;;34.53;27.73;;;;;;;7.64;47.61;96615.34;5025130;28;20643;-69
2023/03/04 09:05:31;;;;;;;42.00;29.60;;;;;;;8.73;46.39;96616.38;5025238;28;20501;-69
2023/03/04 09:07:57;;;;;;;44.60;28.93;;;;;;;8.95;44.78;96615.66;5024911;28;20599;-69
2023/03/04 09:10:22;;;;;;;44.70;29.13;;;;;;;9.49;43.54;96620.72;5023774;28;20521;-69
2023/03/04 09:12:48;;;;;;;46.67;30.53;;;;;;;9.44;44.62;96625.25;5023346;28;20516;-70
2023/03/04 09:15:13;;;;;;;40.70;29.13;;;;;;;9.35;44.06;96628.22;5023571;28;20175;-69
2023/03/04 09:17:40;;;;;;;44.90;32.13;;;;;;;8.38;47.06;96633.16;5025292;28;20172;-69
2023/03/04 09:20:10;;;;;;;48.73;29.80;;;;;;;9.17;45.40;96628.88;5027285;28;20878;-69
2023/03/04 09:22:37;;;;;;;40.07;27.50;;;;;;;9.20;44.88;96628.75;5028375;28;20757;-69
2023/03/04 09:25:03;;;;;;;45.00;26.50;;;;;;;10.21;42.58;96613.72;5029072;28;20423;-69
2023/03/04 09:27:29;;;;;;;37.57;25.83;;;;;;;8.69;45.37;96626.09;5026920;28;20449;-69
2023/03/04 09:29:54;;;;;;;38.63;26.57;;;;;;;8.71;46.00;96617.31;5029827;28;20431;-69
2023/03/04 09:32:20;;;;;;;33.60;24.03;;;;;;;8.93;46.14;96625.31;5037738;28;20207;-69
2023/03/04 09:34:45;;;;;;;41.57;25.43;;;;;;;9.61;43.96;96615.94;5028638;28;20265;-70
2023/03/04 09:37:10;;;;;;;34.80;23.50;;;;;;;9.87;42.48;96612.34;5027220;28;20179;-70
2023/03/04 09:39:36;;;;;;;33.90;24.30;;;;;;;11.27;40.14;96606.72;5027887;28;20179;-68
2023/03/04 09:42:05;;;;;;;35.72;25.67;;;;;;;11.30;40.02;96601.38;5030448;28;20465;-68
2023/03/04 09:44:35;;;;;;;34.43;26.40;;;;;;;10.98;39.95;96600.97;5048553;28;20217;-69
2023/03/04 09:47:15;;;;;;;34.03;25.20;;;;;;;10.44;41.43;96610.19;5029328;28;20437;-68
2023/03/04 09:49:44;;;;;;;37.90;26.20;;;;;;;9.98;42.57;96604.94;5027751;28;20410;-68
2023/03/04 09:52:31;;;;;;;37.97;25.83;;;;;;;9.33;43.49;96609.09;5027338;28;20787;-69
2023/03/04 09:55:21;;;;;;;34.70;24.43;;;;;;;8.93;45.19;96618.34;5030397;28;20445;-70
2023/03/04 09:57:59;;;;;;;38.20;24.53;;;;;;;9.07;45.23;96613.47;5007301;28;20411;-70
2023/03/04 10:00:40;;;;;;;37.30;26.70;;;;;;;9.29;45.60;96616.19;5019306;28;20434;-70
2023/03/04 10:03:11;;;;;;;44.47;26.00;;;;;;;9.21;45.18;96613.00;5027705;28;20493;-70
2023/03/04 10:06:01;;;;;;;46.87;25.30;;;;;;;8.32;47.62;96615.06;5027576;28;20485;-71
2023/03/04 10:08:35;;;;;;;44.53;26.60;;;;;;;8.87;47.19;96621.16;5026771;28;20438;-70
2023/03/04 10:11:05;;;;;;;43.47;25.50;;;;;;;10.14;43.26;96606.06;5028343;28;20445;-71
2023/03/04 10:13:39;;;;;;;37.77;25.90;;;;;;;9.91;43.48;96606.09;5029150;28;20449;-70
2023/03/04 10:16:10;;;;;;;40.53;27.00;;;;;;;9.42;43.78;96605.28;5026107;28;20434;-71
2023/03/04 10:18:41;;;;;;;38.03;26.33;;;;;;;10.35;42.78;96607.03;5027673;28;20740;-71
2023/03/04 10:21:13;;;;;;;39.67;25.00;;;;;;;11.11;40.88;96598.69;5027380;28;20504;-68
2023/03/04 10:23:40;;;;;;;36.27;26.67;;;;;;;9.53;43.09;96600.50;5033081;28;20469;-69
2023/03/04 10:26:14;;;;;;;36.33;27.50;;;;;;;9.09;44.17;96610.78;5027202;28;20476;-69
2023/03/04 10:28:40;;;;;;;41.83;26.03;;;;;;;9.12;45.43;96605.47;5027311;28;20471;-69
2023/03/04 10:31:35;;;;;;;39.70;26.88;;;;;;;9.45;45.18;96600.78;5025624;28;20906;-70
2023/03/04 10:34:04;;;;;;;39.03;25.57;;;;;;;10.13;42.49;96598.25;5021723;28;20218;-70
2023/03/04 10:36:29;;;;;;;35.67;23.10;;;;;;;10.76;41.10;96588.72;5027160;28;20457;-70
2023/03/04 10:39:16;;;;;;;36.67;23.73;;;;;;;10.95;40.53;96582.72;5033312;28;20776;-70
2023/03/04 10:41:44;;;;;;;39.10;24.17;;;;;;;11.46;39.41;96589.28;5025832;28;20202;-70
2023/03/04 10:44:10;;;;;;;36.87;24.80;;;;;;;10.92;39.51;96590.72;5034128;28;20432;-70
2023/03/04 10:46:40;;;;;;;36.43;24.73;;;;;;;10.97;40.30;96591.38;5026731;28;20437;-69
2023/03/04 10:49:06;;;;;;;40.03;26.13;;;;;;;10.94;40.20;96586.28;5026661;28;20606;-71
2023/03/04 10:51:42;;;;;;;33.53;23.00;;;;;;;11.25;40.21;96584.97;5026234;28;20410;-70
2023/03/04 10:54:30;;;;;;;38.60;23.77;;;;;;;10.58;40.42;96587.75;5026527;28;20491;-69
2023/03/04 10:57:00;;;;;;;29.83;23.10;;;;;;;10.29;40.90;96588.91;5025447;28;20431;-69
2023/03/04 10:59:56;;;;;;;38.20;22.23;;;;;;;10.50;40.81;96579.31;5025750;28;20579;-69
2023/03/04 11:02:33;;;;;;;31.10;21.90;;;;;;;10.57;40.02;96587.78;5026429;28;20549;-69
2023/03/04 11:05:14;;;;;;;34.80;20.90;;;;;;;10.28;41.21;96584.56;5026590;28;20414;-69
2023/03/04 11:07:42;;;;;;;34.97;21.30;;;;;;;9.96;42.02;96589.25;5023996;28;20492;-69
2023/03/04 11:10:13;;;;;;;34.60;24.33;;;;;;;10.33;41.58;96590.50;5023854;28;20447;-70
2023/03/04 11:12:38;;;;;;;31.40;20.80;;;;;;;10.65;40.58;96588.31;5025363;28;20200;-69
2023/03/04 11:15:17;;;;;;;35.50;23.70;;;;;;;10.70;40.83;96581.13;5026059;28;20410;-69
2023/03/04 11:17:49;;;;;;;30.37;22.03;;;;;;;11.08;39.97;96583.03;5017174;28;20177;-69
2023/03/04 11:20:29;;;;;;;31.23;22.27;;;;;;;11.59;38.37;96579.88;5024141;28;20461;-69
2023/03/04 11:22:58;;;;;;;31.70;20.63;;;;;;;10.36;40.23;96589.50;5028123;28;20619;-71
2023/03/04 11:25:31;;;;;;;32.50;20.87;;;;;;;10.00;41.05;96583.91;5026389;28;20440;-69